VOZ9291 YANG-YBRM
Flight info
| Callsign | VOZ9291 |
|---|---|
| Flight time | 1h 0m |
| Altitude | 33000 |
| Route | ASEBU Y31 BRM |
| Aircraft | A320/M-SDE3FGHIRWY/LB1 |
Departure
| Time | 2026-05-06 11:59 |
|---|---|
| Airport | West Angelas Airport (YANG) |
Arrival
| Time | 2026-05-06 13:00 |
|---|---|
| Airport | Broome International Airport (YBRM) |
| Time | Latitude | Longitude | Altitude | Speed | Heading |
|---|---|---|---|---|---|
| 2026-05-06 11:42 | -23.13664 | 118.70450 | 2299 ft | 0 kts | 337° |
| 2026-05-06 11:55 | -23.13661 | 118.70452 | 2299 ft | 2 kts | 10° |
| 2026-05-06 11:55 | -23.13655 | 118.70478 | 2306 ft | 5 kts | 106° |
| 2026-05-06 11:55 | -23.13681 | 118.70516 | 2300 ft | 8 kts | 135° |
| 2026-05-06 11:56 | -23.13733 | 118.70563 | 2297 ft | 12 kts | 156° |
| 2026-05-06 11:56 | -23.13805 | 118.70520 | 2297 ft | 13 kts | 226° |
| 2026-05-06 11:56 | -23.13875 | 118.70442 | 2300 ft | 16 kts | 225° |
| 2026-05-06 11:56 | -23.13961 | 118.70348 | 2301 ft | 19 kts | 225° |
| 2026-05-06 11:57 | -23.14052 | 118.70249 | 2304 ft | 16 kts | 226° |
| 2026-05-06 11:57 | -23.14128 | 118.70164 | 2300 ft | 14 kts | 225° |
| 2026-05-06 11:57 | -23.14191 | 118.70113 | 2300 ft | 8 kts | 198° |
| 2026-05-06 11:57 | -23.14205 | 118.70092 | 2294 ft | 1 kts | 298° |
| 2026-05-06 11:58 | -23.14195 | 118.70093 | 2300 ft | 3 kts | 359° |
| 2026-05-06 11:58 | -23.14183 | 118.70102 | 2300 ft | 0 kts | 44° |
| 2026-05-06 11:59 | -23.14066 | 118.70231 | 2300 ft | 65 kts | 45° |
| 2026-05-06 11:59 | -23.13564 | 118.70783 | 2300 ft | 136 kts | 45° |
| 2026-05-06 11:59 | -23.12811 | 118.71632 | 2591 ft | 162 kts | 46° |
| 2026-05-06 11:59 | -23.12036 | 118.72502 | 3311 ft | 162 kts | 46° |
| 2026-05-06 12:00 | -23.11218 | 118.73388 | 4002 ft | 168 kts | 50° |
| 2026-05-06 12:00 | -23.10310 | 118.74248 | 4344 ft | 184 kts | 47° |
| 2026-05-06 12:00 | -23.09263 | 118.75192 | 4525 ft | 208 kts | 46° |
| 2026-05-06 12:00 | -23.08092 | 118.76271 | 4783 ft | 233 kts | 46° |
| 2026-05-06 12:01 | -23.06831 | 118.77469 | 5239 ft | 252 kts | 46° |
| 2026-05-06 12:01 | -23.05482 | 118.78762 | 6023 ft | 258 kts | 45° |
| 2026-05-06 12:01 | -23.04138 | 118.80071 | 6867 ft | 261 kts | 46° |
| 2026-05-06 12:01 | -23.02783 | 118.81413 | 7634 ft | 266 kts | 45° |
| 2026-05-06 12:02 | -23.01419 | 118.82795 | 8387 ft | 271 kts | 45° |
| 2026-05-06 12:02 | -23.00051 | 118.84216 | 9137 ft | 275 kts | 45° |
| 2026-05-06 12:02 | -22.98668 | 118.85688 | 9759 ft | 282 kts | 46° |
| 2026-05-06 12:02 | -22.97279 | 118.87191 | 9928 ft | 282 kts | 46° |
| 2026-05-06 12:03 | -22.95906 | 118.88688 | 9975 ft | 285 kts | 46° |
| 2026-05-06 12:03 | -22.94454 | 118.90271 | 10187 ft | 301 kts | 46° |
| 2026-05-06 12:03 | -22.92961 | 118.91904 | 10653 ft | 315 kts | 46° |
| 2026-05-06 12:03 | -22.91361 | 118.93656 | 10778 ft | 338 kts | 46° |
| 2026-05-06 12:04 | -22.89660 | 118.95525 | 10983 ft | 356 kts | 46° |
| 2026-05-06 12:04 | -22.87903 | 118.97456 | 11506 ft | 363 kts | 45° |
| 2026-05-06 12:04 | -22.86104 | 118.99404 | 12112 ft | 367 kts | 45° |
| 2026-05-06 12:04 | -22.84269 | 119.01360 | 12668 ft | 373 kts | 44° |
| 2026-05-06 12:05 | -22.82396 | 119.03335 | 13236 ft | 378 kts | 44° |
| 2026-05-06 12:05 | -22.80495 | 119.05333 | 13783 ft | 384 kts | 44° |
| 2026-05-06 12:05 | -22.78571 | 119.07361 | 14285 ft | 389 kts | 44° |
| 2026-05-06 12:05 | -22.76621 | 119.09422 | 14776 ft | 394 kts | 44° |
| 2026-05-06 12:06 | -22.74654 | 119.11510 | 15252 ft | 398 kts | 44° |
| 2026-05-06 12:06 | -22.72660 | 119.13628 | 15693 ft | 404 kts | 44° |
| 2026-05-06 12:06 | -22.70640 | 119.15774 | 16174 ft | 409 kts | 44° |
| 2026-05-06 12:06 | -22.68594 | 119.17943 | 16687 ft | 413 kts | 43° |
| 2026-05-06 12:07 | -22.66524 | 119.20133 | 17181 ft | 418 kts | 43° |
| 2026-05-06 12:07 | -22.64430 | 119.22349 | 17738 ft | 422 kts | 43° |
| 2026-05-06 12:07 | -22.62319 | 119.24581 | 18301 ft | 426 kts | 43° |
| 2026-05-06 12:07 | -22.60191 | 119.26832 | 18795 ft | 429 kts | 43° |
| 2026-05-06 12:08 | -22.58050 | 119.29099 | 19296 ft | 432 kts | 43° |
| 2026-05-06 12:08 | -22.55923 | 119.31353 | 19774 ft | 435 kts | 43° |
| 2026-05-06 12:08 | -22.53750 | 119.33656 | 20248 ft | 438 kts | 43° |
| 2026-05-06 12:08 | -22.51564 | 119.35970 | 20694 ft | 442 kts | 43° |
| 2026-05-06 12:09 | -22.49359 | 119.38300 | 21121 ft | 445 kts | 43° |
| 2026-05-06 12:09 | -22.47134 | 119.40644 | 21538 ft | 448 kts | 43° |
| 2026-05-06 12:09 | -22.44895 | 119.43001 | 21924 ft | 451 kts | 43° |
| 2026-05-06 12:09 | -22.42644 | 119.45373 | 22303 ft | 454 kts | 43° |
| 2026-05-06 12:10 | -22.40375 | 119.47764 | 22682 ft | 457 kts | 43° |
| 2026-05-06 12:10 | -22.38091 | 119.50171 | 23043 ft | 460 kts | 43° |
| 2026-05-06 12:10 | -22.35792 | 119.52591 | 23381 ft | 463 kts | 43° |
| 2026-05-06 12:10 | -22.33476 | 119.55025 | 23719 ft | 466 kts | 43° |
| 2026-05-06 12:11 | -22.31148 | 119.57466 | 23991 ft | 469 kts | 42° |
| 2026-05-06 12:11 | -22.28794 | 119.59933 | 24283 ft | 472 kts | 42° |
| 2026-05-06 12:11 | -22.26430 | 119.62408 | 24560 ft | 475 kts | 42° |
| 2026-05-06 12:11 | -22.24047 | 119.64910 | 24816 ft | 478 kts | 42° |
| 2026-05-06 12:12 | -22.21661 | 119.67416 | 25078 ft | 481 kts | 42° |
| 2026-05-06 12:12 | -22.19286 | 119.69911 | 25342 ft | 484 kts | 42° |
| 2026-05-06 12:12 | -22.16871 | 119.72448 | 25598 ft | 487 kts | 42° |
| 2026-05-06 12:12 | -22.14437 | 119.75003 | 25861 ft | 490 kts | 41° |
| 2026-05-06 12:13 | -22.11992 | 119.77569 | 26142 ft | 492 kts | 41° |
| 2026-05-06 12:13 | -22.09535 | 119.80143 | 26531 ft | 492 kts | 41° |
| 2026-05-06 12:13 | -22.07081 | 119.82709 | 26904 ft | 492 kts | 41° |
| 2026-05-06 12:13 | -22.04621 | 119.85277 | 27265 ft | 493 kts | 41° |
| 2026-05-06 12:14 | -22.02152 | 119.87852 | 27623 ft | 494 kts | 41° |
| 2026-05-06 12:14 | -21.99681 | 119.90430 | 27967 ft | 496 kts | 40° |
| 2026-05-06 12:14 | -21.97201 | 119.93018 | 28322 ft | 497 kts | 40° |
| 2026-05-06 12:14 | -21.94711 | 119.95616 | 28718 ft | 498 kts | 40° |
| 2026-05-06 12:15 | -21.92218 | 119.98213 | 29080 ft | 498 kts | 40° |
| 2026-05-06 12:15 | -21.89726 | 120.00814 | 29456 ft | 499 kts | 40° |
| 2026-05-06 12:15 | -21.87228 | 120.03418 | 29849 ft | 500 kts | 40° |
| 2026-05-06 12:15 | -21.84719 | 120.06034 | 30236 ft | 501 kts | 40° |
| 2026-05-06 12:16 | -21.82218 | 120.08641 | 30558 ft | 502 kts | 39° |
| 2026-05-06 12:16 | -21.79736 | 120.11222 | 30854 ft | 503 kts | 39° |
| 2026-05-06 12:16 | -21.77217 | 120.13837 | 31161 ft | 504 kts | 39° |
| 2026-05-06 12:16 | -21.74680 | 120.16471 | 31463 ft | 506 kts | 39° |
| 2026-05-06 12:17 | -21.72148 | 120.19102 | 31767 ft | 507 kts | 39° |
| 2026-05-06 12:17 | -21.69605 | 120.21741 | 32078 ft | 508 kts | 39° |
| 2026-05-06 12:17 | -21.67057 | 120.24387 | 32393 ft | 510 kts | 38° |
| 2026-05-06 12:17 | -21.64503 | 120.27035 | 32718 ft | 511 kts | 38° |
| 2026-05-06 12:18 | -21.61943 | 120.29688 | 33002 ft | 513 kts | 38° |
| 2026-05-06 12:18 | -21.59363 | 120.32359 | 33082 ft | 517 kts | 38° |
| 2026-05-06 12:18 | -21.54105 | 120.37796 | 33085 ft | 530 kts | 38° |
| 2026-05-06 12:19 | -21.48783 | 120.43309 | 33081 ft | 532 kts | 38° |
| 2026-05-06 12:19 | -21.43455 | 120.48823 | 33072 ft | 532 kts | 38° |
| 2026-05-06 12:20 | -21.38122 | 120.54325 | 33078 ft | 532 kts | 38° |
| 2026-05-06 12:20 | -21.32779 | 120.59818 | 33076 ft | 532 kts | 38° |
| 2026-05-06 12:21 | -21.27447 | 120.65305 | 33047 ft | 532 kts | 38° |
| 2026-05-06 12:21 | -21.22111 | 120.70809 | 33052 ft | 532 kts | 38° |
| 2026-05-06 12:22 | -21.16767 | 120.76306 | 33051 ft | 533 kts | 38° |
| 2026-05-06 12:22 | -21.11407 | 120.81801 | 33051 ft | 533 kts | 38° |
| 2026-05-06 12:23 | -21.06089 | 120.87251 | 33055 ft | 533 kts | 38° |
| 2026-05-06 12:23 | -21.00730 | 120.92736 | 33051 ft | 533 kts | 38° |
| 2026-05-06 12:24 | -20.95376 | 120.98220 | 33030 ft | 533 kts | 38° |
| 2026-05-06 12:24 | -20.90018 | 121.03706 | 33034 ft | 533 kts | 38° |
| 2026-05-06 12:25 | -20.84658 | 121.09182 | 33032 ft | 533 kts | 38° |
| 2026-05-06 12:25 | -20.79289 | 121.14644 | 33044 ft | 533 kts | 38° |
| 2026-05-06 12:26 | -20.73920 | 121.20112 | 33043 ft | 533 kts | 38° |
| 2026-05-06 12:26 | -20.68551 | 121.25582 | 33044 ft | 533 kts | 38° |
| 2026-05-06 12:27 | -20.63188 | 121.31050 | 33052 ft | 533 kts | 38° |
| 2026-05-06 12:27 | -20.57815 | 121.36502 | 33023 ft | 533 kts | 37° |
| 2026-05-06 12:28 | -20.52479 | 121.41915 | 33037 ft | 533 kts | 37° |
| 2026-05-06 12:28 | -20.47072 | 121.47402 | 33043 ft | 533 kts | 37° |
| 2026-05-06 12:29 | -20.41727 | 121.52812 | 33034 ft | 533 kts | 37° |
| 2026-05-06 12:29 | -20.36353 | 121.58246 | 33042 ft | 533 kts | 37° |
| 2026-05-06 12:30 | -20.30975 | 121.63684 | 33051 ft | 533 kts | 37° |
| 2026-05-06 12:30 | -20.25604 | 121.69114 | 33041 ft | 532 kts | 37° |
| 2026-05-06 12:31 | -20.20228 | 121.74535 | 33013 ft | 532 kts | 37° |
| 2026-05-06 12:31 | -20.14770 | 121.79851 | 33017 ft | 527 kts | 30° |
| 2026-05-06 12:32 | -20.08588 | 121.83735 | 33029 ft | 507 kts | 14° |
| 2026-05-06 12:32 | -20.02067 | 121.86565 | 33034 ft | 506 kts | 13° |
| 2026-05-06 12:33 | -19.95541 | 121.89408 | 33044 ft | 507 kts | 13° |
| 2026-05-06 12:33 | -19.89024 | 121.92266 | 33004 ft | 507 kts | 13° |
| 2026-05-06 12:34 | -19.82497 | 121.95122 | 33015 ft | 507 kts | 13° |
| 2026-05-06 12:34 | -19.75967 | 121.97972 | 33028 ft | 507 kts | 13° |
| 2026-05-06 12:35 | -19.69437 | 122.00825 | 33032 ft | 507 kts | 13° |
| 2026-05-06 12:35 | -19.62906 | 122.03670 | 33041 ft | 507 kts | 13° |
| 2026-05-06 12:36 | -19.56407 | 122.06490 | 33013 ft | 507 kts | 13° |
| 2026-05-06 12:36 | -19.49869 | 122.09333 | 33023 ft | 508 kts | 13° |
| 2026-05-06 12:37 | -19.44392 | 122.11712 | 33033 ft | 508 kts | 13° |
| 2026-05-06 12:37 | -19.37850 | 122.14551 | 33035 ft | 508 kts | 13° |
| 2026-05-06 12:38 | -19.31358 | 122.17325 | 33036 ft | 497 kts | 8° |
| 2026-05-06 12:38 | -19.28082 | 122.18156 | 33011 ft | 478 kts | 1° |
| 2026-05-06 12:38 | -19.24828 | 122.18824 | 33048 ft | 476 kts | 0° |
| 2026-05-06 12:39 | -19.18321 | 122.20117 | 32648 ft | 476 kts | 0° |
| 2026-05-06 12:39 | -19.15023 | 122.20764 | 31258 ft | 490 kts | 1° |
| 2026-05-06 12:39 | -19.11636 | 122.21428 | 30090 ft | 498 kts | 2° |
| 2026-05-06 12:40 | -19.08220 | 122.22114 | 28837 ft | 497 kts | 2° |
| 2026-05-06 12:40 | -19.04836 | 122.22806 | 27031 ft | 496 kts | 3° |
| 2026-05-06 12:40 | -19.01440 | 122.23498 | 25092 ft | 498 kts | 4° |
| 2026-05-06 12:40 | -18.98028 | 122.24187 | 23220 ft | 499 kts | 5° |
| 2026-05-06 12:41 | -18.94665 | 122.24870 | 21829 ft | 486 kts | 5° |
| 2026-05-06 12:41 | -18.91387 | 122.25542 | 20471 ft | 473 kts | 6° |
| 2026-05-06 12:41 | -18.88188 | 122.26197 | 19158 ft | 464 kts | 6° |
| 2026-05-06 12:41 | -18.85052 | 122.26832 | 17816 ft | 455 kts | 7° |
| 2026-05-06 12:42 | -18.81975 | 122.27451 | 16687 ft | 442 kts | 7° |
| 2026-05-06 12:42 | -18.79027 | 122.28042 | 15884 ft | 423 kts | 7° |
| 2026-05-06 12:42 | -18.76178 | 122.28608 | 15096 ft | 410 kts | 7° |
| 2026-05-06 12:42 | -18.73420 | 122.29159 | 14345 ft | 397 kts | 8° |
| 2026-05-06 12:43 | -18.70754 | 122.29691 | 13625 ft | 387 kts | 8° |
| 2026-05-06 12:43 | -18.68109 | 122.30216 | 12913 ft | 385 kts | 8° |
| 2026-05-06 12:43 | -18.65490 | 122.30738 | 12249 ft | 381 kts | 9° |
| 2026-05-06 12:43 | -18.62875 | 122.31260 | 11596 ft | 381 kts | 9° |
| 2026-05-06 12:44 | -18.60333 | 122.31769 | 11246 ft | 370 kts | 9° |
| 2026-05-06 12:44 | -18.57858 | 122.32264 | 11115 ft | 354 kts | 9° |
| 2026-05-06 12:44 | -18.55490 | 122.32737 | 10991 ft | 339 kts | 9° |
| 2026-05-06 12:44 | -18.53208 | 122.33194 | 10820 ft | 329 kts | 10° |
| 2026-05-06 12:45 | -18.50951 | 122.33643 | 10754 ft | 330 kts | 10° |
| 2026-05-06 12:45 | -18.48705 | 122.34088 | 10646 ft | 330 kts | 10° |
| 2026-05-06 12:45 | -18.44202 | 122.34993 | 10357 ft | 326 kts | 10° |
| 2026-05-06 12:46 | -18.42007 | 122.35436 | 10184 ft | 317 kts | 10° |
| 2026-05-06 12:46 | -18.39837 | 122.35872 | 10068 ft | 317 kts | 11° |
| 2026-05-06 12:46 | -18.37663 | 122.36308 | 9764 ft | 320 kts | 11° |
| 2026-05-06 12:46 | -18.35480 | 122.36744 | 9321 ft | 318 kts | 11° |
| 2026-05-06 12:47 | -18.33309 | 122.37177 | 8914 ft | 316 kts | 11° |
| 2026-05-06 12:47 | -18.31149 | 122.37607 | 8496 ft | 315 kts | 11° |
| 2026-05-06 12:47 | -18.29000 | 122.38037 | 8094 ft | 313 kts | 11° |
| 2026-05-06 12:47 | -18.26861 | 122.38461 | 7699 ft | 312 kts | 11° |
| 2026-05-06 12:48 | -18.24755 | 122.38881 | 7293 ft | 311 kts | 11° |
| 2026-05-06 12:48 | -18.22632 | 122.39308 | 6892 ft | 310 kts | 11° |
| 2026-05-06 12:48 | -18.20512 | 122.39731 | 6492 ft | 310 kts | 11° |
| 2026-05-06 12:48 | -18.18376 | 122.39969 | 6074 ft | 309 kts | 356° |
| 2026-05-06 12:49 | -18.16295 | 122.39490 | 5671 ft | 306 kts | 336° |
| 2026-05-06 12:49 | -18.14480 | 122.38360 | 5268 ft | 304 kts | 323° |
| 2026-05-06 12:49 | -18.12766 | 122.37065 | 4868 ft | 303 kts | 323° |
| 2026-05-06 12:49 | -18.11079 | 122.35763 | 4605 ft | 297 kts | 319° |
| 2026-05-06 12:50 | -18.09613 | 122.34292 | 4602 ft | 285 kts | 310° |
| 2026-05-06 12:50 | -18.08466 | 122.32696 | 4595 ft | 262 kts | 301° |
| 2026-05-06 12:50 | -18.07650 | 122.31080 | 4614 ft | 242 kts | 292° |
| 2026-05-06 12:50 | -18.07098 | 122.29473 | 4603 ft | 227 kts | 284° |
| 2026-05-06 12:51 | -18.06683 | 122.27882 | 4607 ft | 225 kts | 284° |
| 2026-05-06 12:51 | -18.06265 | 122.26307 | 4609 ft | 224 kts | 284° |
| 2026-05-06 12:51 | -18.05846 | 122.24731 | 4607 ft | 224 kts | 284° |
| 2026-05-06 12:51 | -18.05426 | 122.23158 | 4606 ft | 224 kts | 284° |
| 2026-05-06 12:52 | -18.05005 | 122.21583 | 4607 ft | 224 kts | 284° |
| 2026-05-06 12:52 | -18.04585 | 122.20010 | 4608 ft | 223 kts | 284° |
| 2026-05-06 12:52 | -18.04167 | 122.18436 | 4613 ft | 224 kts | 284° |
| 2026-05-06 12:52 | -18.03749 | 122.16866 | 4611 ft | 223 kts | 284° |
| 2026-05-06 12:53 | -18.03332 | 122.15292 | 4608 ft | 224 kts | 284° |
| 2026-05-06 12:53 | -18.02911 | 122.13715 | 4611 ft | 224 kts | 284° |
| 2026-05-06 12:53 | -18.02488 | 122.12140 | 4607 ft | 224 kts | 284° |
| 2026-05-06 12:53 | -18.02069 | 122.10573 | 4606 ft | 222 kts | 284° |
| 2026-05-06 12:54 | -18.01656 | 122.09068 | 4587 ft | 208 kts | 289° |
| 2026-05-06 12:54 | -18.01005 | 122.07729 | 4352 ft | 205 kts | 305° |
| 2026-05-06 12:54 | -18.00031 | 122.06655 | 4057 ft | 203 kts | 322° |
| 2026-05-06 12:54 | -17.98828 | 122.05919 | 3793 ft | 199 kts | 338° |
| 2026-05-06 12:55 | -17.97504 | 122.05558 | 3551 ft | 196 kts | 354° |
| 2026-05-06 12:55 | -17.96150 | 122.05580 | 3312 ft | 193 kts | 9° |
| 2026-05-06 12:55 | -17.94905 | 122.05952 | 3073 ft | 184 kts | 24° |
| 2026-05-06 12:55 | -17.93821 | 122.06619 | 2838 ft | 173 kts | 37° |
| 2026-05-06 12:56 | -17.93019 | 122.07438 | 2656 ft | 156 kts | 50° |
| 2026-05-06 12:56 | -17.92433 | 122.08379 | 2461 ft | 153 kts | 62° |
| 2026-05-06 12:56 | -17.92048 | 122.09413 | 2253 ft | 151 kts | 73° |
| 2026-05-06 12:56 | -17.91883 | 122.10497 | 2036 ft | 151 kts | 85° |
| 2026-05-06 12:57 | -17.91934 | 122.11592 | 1875 ft | 149 kts | 97° |
| 2026-05-06 12:57 | -17.92183 | 122.12656 | 1738 ft | 150 kts | 105° |
| 2026-05-06 12:57 | -17.92503 | 122.13702 | 1572 ft | 150 kts | 105° |
| 2026-05-06 12:57 | -17.92812 | 122.14746 | 1361 ft | 149 kts | 103° |
| 2026-05-06 12:58 | -17.93055 | 122.15807 | 1149 ft | 149 kts | 101° |
| 2026-05-06 12:58 | -17.93312 | 122.16865 | 1015 ft | 149 kts | 103° |
| 2026-05-06 12:58 | -17.93590 | 122.17919 | 810 ft | 150 kts | 104° |
| 2026-05-06 12:58 | -17.93863 | 122.18966 | 621 ft | 148 kts | 105° |
| 2026-05-06 12:59 | -17.94136 | 122.19983 | 421 ft | 145 kts | 106° |
| 2026-05-06 12:59 | -17.94416 | 122.20990 | 232 ft | 142 kts | 105° |
| 2026-05-06 12:59 | -17.94677 | 122.21984 | 64 ft | 137 kts | 104° |
| 2026-05-06 12:59 | -17.94881 | 122.22761 | 52 ft | 71 kts | 105° |
| 2026-05-06 13:00 | -17.94983 | 122.23141 | 39 ft | 50 kts | 106° |
| 2026-05-06 13:00 | -17.95038 | 122.23347 | 36 ft | 16 kts | 106° |
| 2026-05-06 13:00 | -17.95115 | 122.23381 | 36 ft | 9 kts | 195° |
| 2026-05-06 13:00 | -17.95163 | 122.23364 | 37 ft | 6 kts | 206° |
| 2026-05-06 13:01 | -17.95186 | 122.23325 | 35 ft | 7 kts | 245° |
| 2026-05-06 13:01 | -17.95215 | 122.23300 | 37 ft | 5 kts | 194° |
| 2026-05-06 13:01 | -17.95229 | 122.23321 | 35 ft | 3 kts | 75° |
| 2026-05-06 13:01 | -17.95219 | 122.23341 | 37 ft | 2 kts | 65° |
| 2026-05-06 13:02 | -17.95217 | 122.23344 | 37 ft | 0 kts | 65° |